Aérodrome :
LOGIN :

S'inscrire | Disclaimer

   EN    FR    IT 

 










Légende :    VFR   VFR Marginal   IFR   IFR Intensif   IFR Très Intensif
Visi : 
Plafond : 
>= 8 km
>= 3000ft
5 à 8 km
1000 à 3000 ft
1500m à 5 km
500 à 1000 ft
800 à 1500m
200 à 500 ft
< 800m
< 200 ft
Symboles :   Orages  Brouillard  Fortes neiges  Fortes précipitations  Vent > 20 kt
SIGMETs :   Divers  Orages  Givrage  Turbulence  Onde Orograph.  Cendres Volcan.






- Altitude de l'aérodrome : 135 ft
- Code IATA : BOJ


LBBG - Burgas

DERNIER METAR :
  • 271030Z 27011KT 9999 -SHRA FEW011 FEW029CB BKN042 13/11 Q1001 RETSRA R99/29//95 TEMPO VRB20G30KT 1500 TSRA SCT025CB

METARs EXPIRÉS :
  • 271000Z 25015KT 6000 -SHRA FEW013 FEW033CB BKN039 13/10 Q1002 RESHRA R04/29//95 TEMPO 3000 TSRA
  • 270930Z 21021KT 9999 TS FEW022 SCT036CB BKN042 18/08 Q1001 TEMPO SHRA FEW040CB
  • 270900Z 21023G33KT 9999 FEW022 SCT036 BKN049 18/09 Q1001 TEMPO SHRA FEW040TCU
  • 270830Z 21020KT 9999 FEW023 SCT039 18/09 Q1001 NOSIG
  • 270800Z 21018KT 9999 FEW024 18/10 Q1002 NOSIG

TAF TAF LBBG
Valide du 27 à 06h jusqu'au 28 à 06h UTC


270500Z 2706/2806 22016KT 9999 SCT030 BKN045
TEMPO 2709/2714 23020G32KT 5000 SHRA SCT015 FEW030CB BKN040
BECMG 2713/2715 29018KT
PROB40
TEMPO 2714/2716 30020G30KT 3000 TSRA SCT015 SCT030CB BKN040
BECMG 2723/2801 26008KT



MET'MAP, la Météo Aéronautique d'un coup d'oeil ! - Copyright ORBIFLY Décembre 2007 - Disclaimer

ORBIFLY MET'MAP TEAM :

Programmation & Développement : Alexandra Zaïnal
Sur une idée originale de : Baudouin d'Aumeries
Assistance à la programmation : Marc-Olivier Méhu
Soutien technique & logistique : Manuel Goepfert

Contact : metmap@orbifly.com




SOURCES & CREDITS :

   NOAA